KEKQ

Details ICAO KEKQ
Name WAYNE CO
Region United States
Timezone America/Kentucky/Monticello (UTC-4.0)
Plans Departing 0
Arriving 4
Stats Elevation 963 ft / 294 m (AMSL)
Location 36.855263° -84.856125°
Runways 1
Magnetic Variation 5.285° W
Sunrise 2018-05-22 10:28:05 UTC / 2018-05-22 06:28:05 Local
Sunset 2018-05-23 00:46:59 UTC / 2018-05-22 20:46:59 Local
Advertisement - Login to hide

Runways

ID Width Length Bearing (true) Bearing (mag) Surface Threshold Offset Overrun Length
03 75 ft / 23 m 4,002 ft / 1,220 m 35.64° 40.92° Asphalt 0 ft / 0 m 0 ft / 0 m
21 75 ft / 23 m 4,002 ft / 1,220 m 215.65° 220.93° Asphalt 0 ft / 0 m 0 ft / 0 m

Map

Weather


0- 5 10 15 20 25 30 35+ Temperature / ° C

Clouds and Precipitation
Forecast for 2018-05-23 00:00 UTC. Updated 36 minutes ago

Ground ~20,000 ft ~40,000 ft Winds

METAR

KEKQ 222256Z AUTO 07006KT 10SM SCT005 21/21 A3006 RMK AO2 TSE07RAE37 SLP193 T02110206 PNO $

TAF

Not found

Frequencies

Recorded 118.82 MHz ASOS
Unicom 122.80 MHz CTAF/UNICOM
Warning: Do not use this data for real-world aviation or navigation. No guarantee of current accuracy is given.